Rechercher aéroport 
image banner adimage banner adimage banner ad
image banner ad

CA65 - Alta Vista

Situé à Watsonville, United States

ICAO - CA65, IATA -

Données fournies par Airmate  

Information générale

Coordonnées: N36°58'13" W121°51'45"
Élévation : 480 feet MSL.
Variation magnétique : 16° East
Voir autres Aéroports à California

Données opérationnelles

Special qualification required
Heure actuelle UTC:
Heure actuelle locale:
Météo à : KWVI - Watsonville Muni ( 8 km )
METAR: KWVI 020353Z AUTO 00000KT 10SM CLR 16/12 A3009 RMK AO2 SLP188 T01610122
Voir NOTAMs / SUP AIP / TFR affectant cet aéroport [VIEW]
Fréquences de communication: [VIEW]

Pistes:

Coordonnées de l'aéroport

Adresse: Watsonville United States

Vue satellite de CA65